Time;durP1;ratioP1;P1;durP2;ratioP2;P2;SDS_P1;SDS_P2;PMS_P1;PMS_P2;Temp;Humidity;BMP_temperature;BMP_pressure;BME280_temperature;BME280_humidity;BME280_pressure;Samples;Min_cycle;Max_cycle;Signal;HPM_P1;HPM_P2
2023/05/26 00:01:22;;;;;;;34.60;6.93;;;;;;;;;;5033705;28;20218;-60
2023/05/26 00:03:48;;;;;;;34.45;6.15;;;;;;;;;;5033355;28;20207;-61
2023/05/26 00:06:14;;;;;;;31.75;6.47;;;;;;;;;;5033327;28;20222;-60
2023/05/26 00:08:39;;;;;;;31.60;6.30;;;;;;;;;;5033655;28;20211;-60
2023/05/26 00:11:05;;;;;;;31.08;6.35;;;;;;;;;;5032251;28;20212;-60
2023/05/26 00:13:30;;;;;;;31.95;5.97;;;;;;;;;;5033557;28;20342;-61
2023/05/26 00:15:56;;;;;;;23.35;5.80;;;;;;;;;;5028650;28;20224;-60
2023/05/26 00:18:26;;;;;;;31.02;6.20;;;;;;;;;;5012992;28;20643;-60
2023/05/26 00:20:51;;;;;;;28.40;5.82;;;;;;;;;;5013107;28;20306;-61
2023/05/26 00:23:16;;;;;;;25.42;5.63;;;;;;;;;;5012698;28;20251;-60
2023/05/26 00:25:42;;;;;;;25.40;5.55;;;;;;;;;;5011258;28;20232;-61
2023/05/26 00:28:07;;;;;;;35.63;6.20;;;;;;;;;;5013188;28;20220;-60
2023/05/26 00:30:32;;;;;;;34.30;5.80;;;;;;;;;;5013687;28;20717;-61
2023/05/26 00:32:57;;;;;;;30.50;6.10;;;;;;;;;;5013048;28;20216;-60
2023/05/26 00:35:23;;;;;;;30.05;6.13;;;;;;;;;;5013062;28;20718;-60
2023/05/26 00:37:48;;;;;;;29.58;5.80;;;;;;;;;;5013400;28;20217;-61
2023/05/26 00:40:13;;;;;;;33.75;5.63;;;;;;;;;;5011875;28;20216;-60
2023/05/26 00:42:39;;;;;;;33.15;6.35;;;;;;;;;;5012017;28;20216;-60
2023/05/26 00:45:04;;;;;;;33.85;6.63;;;;;;;;;;5012291;28;20247;-60
2023/05/26 00:47:29;;;;;;;27.65;6.28;;;;;;;;;;5013726;28;20667;-60
2023/05/26 00:49:55;;;;;;;34.92;5.97;;;;;;;;;;5013274;28;20304;-60
2023/05/26 00:52:20;;;;;;;31.45;6.15;;;;;;;;;;5012020;28;20227;-60
2023/05/26 00:54:46;;;;;;;32.25;6.97;;;;;;;;;;5021712;28;20227;-60
2023/05/26 00:57:11;;;;;;;29.00;5.63;;;;;;;;;;5012836;28;20219;-61
2023/05/26 00:59:36;;;;;;;34.58;6.43;;;;;;;;;;5012273;28;20308;-60
2023/05/26 01:02:02;;;;;;;37.63;6.78;;;;;;;;;;5012738;28;20216;-60
2023/05/26 01:04:28;;;;;;;27.23;5.57;;;;;;;;;;5013046;28;20216;-60
2023/05/26 01:06:55;;;;;;;38.40;6.65;;;;;;;;;;5012309;28;20295;-61
2023/05/26 01:09:20;;;;;;;30.17;5.97;;;;;;;;;;5012290;28;20219;-60
2023/05/26 01:11:48;;;;;;;32.35;6.43;;;;;;;;;;5011301;28;20212;-61
2023/05/26 01:14:23;;;;;;;39.75;6.72;;;;;;;;;;5014735;28;20218;-61
2023/05/26 01:16:52;;;;;;;37.30;6.18;;;;;;;;;;5005080;28;20223;-61
2023/05/26 01:19:19;;;;;;;38.35;6.32;;;;;;;;;;5034839;28;20244;-61
2023/05/26 01:21:44;;;;;;;31.60;6.40;;;;;;;;;;5021193;28;20359;-61
2023/05/26 01:24:11;;;;;;;30.85;6.63;;;;;;;;;;5016053;28;20739;-61
2023/05/26 01:26:37;;;;;;;38.90;6.47;;;;;;;;;;5014117;28;20209;-61
2023/05/26 01:29:10;;;;;;;27.90;6.40;;;;;;;;;;5012499;28;20212;-61
2023/05/26 01:31:38;;;;;;;37.92;6.80;;;;;;;;;;5017932;28;20220;-61
2023/05/26 01:34:03;;;;;;;30.17;6.00;;;;;;;;;;5021780;28;20706;-61
2023/05/26 01:36:29;;;;;;;34.08;5.63;;;;;;;;;;5021208;28;20227;-61
2023/05/26 01:38:54;;;;;;;28.25;5.70;;;;;;;;;;5022229;28;20255;-61
2023/05/26 01:44:25;;;;;;;32.33;6.07;;;;;;;;;;5021416;28;20222;-60
2023/05/26 01:46:50;;;;;;;33.60;6.22;;;;;;;;;;5016630;28;20223;-61
2023/05/26 01:49:16;;;;;;;33.70;6.90;;;;;;;;;;5013278;28;20211;-61
2023/05/26 01:51:42;;;;;;;33.38;7.13;;;;;;;;;;5013704;28;20273;-61
2023/05/26 01:54:09;;;;;;;35.85;5.93;;;;;;;;;;5017487;28;20216;-60
2023/05/26 01:56:34;;;;;;;37.05;6.38;;;;;;;;;;5006946;28;20254;-61
2023/05/26 01:59:00;;;;;;;32.05;7.20;;;;;;;;;;5002476;28;20576;-60
2023/05/26 02:01:26;;;;;;;35.85;7.22;;;;;;;;;;5001829;28;20224;-61
2023/05/26 02:03:52;;;;;;;45.88;7.43;;;;;;;;;;5020975;28;20214;-60
2023/05/26 02:06:17;;;;;;;33.83;7.03;;;;;;;;;;5020833;28;20207;-60
2023/05/26 02:08:42;;;;;;;37.20;6.25;;;;;;;;;;5019853;28;20273;-60
2023/05/26 02:11:08;;;;;;;37.35;6.78;;;;;;;;;;5013118;28;20491;-61
2023/05/26 02:13:33;;;;;;;41.33;6.88;;;;;;;;;;5014116;28;20224;-61
2023/05/26 02:15:58;;;;;;;34.00;7.13;;;;;;;;;;4998921;28;20217;-61
2023/05/26 02:18:24;;;;;;;37.58;7.22;;;;;;;;;;5003077;28;20390;-61
2023/05/26 02:20:50;;;;;;;39.05;7.25;;;;;;;;;;5020830;28;20228;-61
2023/05/26 02:23:15;;;;;;;40.88;6.72;;;;;;;;;;5030816;28;20738;-61
2023/05/26 02:25:41;;;;;;;34.75;6.70;;;;;;;;;;5013052;28;20316;-61
2023/05/26 02:28:06;;;;;;;38.08;6.75;;;;;;;;;;5011259;28;20212;-61
2023/05/26 02:30:31;;;;;;;30.92;6.78;;;;;;;;;;5011613;28;20216;-61
2023/05/26 02:32:56;;;;;;;32.28;6.57;;;;;;;;;;5011090;28;20239;-61
2023/05/26 02:35:22;;;;;;;38.53;7.32;;;;;;;;;;5010985;28;20227;-61
2023/05/26 02:37:47;;;;;;;28.70;6.20;;;;;;;;;;5010752;28;20592;-61
2023/05/26 02:40:12;;;;;;;31.05;6.68;;;;;;;;;;5010827;28;20211;-60
2023/05/26 02:42:38;;;;;;;33.63;6.90;;;;;;;;;;5011389;28;20212;-61
2023/05/26 02:45:03;;;;;;;32.67;6.22;;;;;;;;;;5012487;28;20224;-60
2023/05/26 02:47:28;;;;;;;35.58;6.38;;;;;;;;;;5006636;28;20342;-60
2023/05/26 02:49:54;;;;;;;34.53;7.03;;;;;;;;;;5005855;28;20268;-60
2023/05/26 02:52:21;;;;;;;34.10;6.40;;;;;;;;;;5004394;28;20274;-61
2023/05/26 02:54:46;;;;;;;39.10;6.78;;;;;;;;;;5005006;28;20224;-61
2023/05/26 02:57:11;;;;;;;29.80;6.72;;;;;;;;;;5005555;28;20274;-61
2023/05/26 02:59:36;;;;;;;33.70;6.90;;;;;;;;;;5000045;28;20943;-61
2023/05/26 03:02:02;;;;;;;29.85;6.32;;;;;;;;;;4997858;28;20230;-61
2023/05/26 03:04:27;;;;;;;31.38;6.53;;;;;;;;;;4997717;28;20754;-61
2023/05/26 03:06:52;;;;;;;39.03;6.68;;;;;;;;;;5002098;28;20218;-61
2023/05/26 03:09:18;;;;;;;28.95;6.75;;;;;;;;;;5004929;28;20222;-61
2023/05/26 03:11:43;;;;;;;26.67;6.15;;;;;;;;;;5005151;28;20212;-61
2023/05/26 03:14:08;;;;;;;38.03;6.95;;;;;;;;;;5004526;28;20255;-61
2023/05/26 03:16:33;;;;;;;34.13;7.00;;;;;;;;;;5005946;28;20224;-61
2023/05/26 03:18:59;;;;;;;33.83;6.70;;;;;;;;;;5004940;28;20261;-61
2023/05/26 03:21:24;;;;;;;33.60;6.38;;;;;;;;;;5001561;28;20638;-61
2023/05/26 03:23:49;;;;;;;34.80;6.40;;;;;;;;;;5001030;28;20757;-61
2023/05/26 03:26:15;;;;;;;33.55;6.78;;;;;;;;;;4996781;28;20984;-61
2023/05/26 03:28:41;;;;;;;35.20;7.03;;;;;;;;;;4999564;28;20212;-61
2023/05/26 03:31:06;;;;;;;31.70;6.10;;;;;;;;;;5004808;28;20622;-60
2023/05/26 03:33:31;;;;;;;27.58;6.40;;;;;;;;;;5005392;28;20224;-61
2023/05/26 03:35:58;;;;;;;34.75;6.95;;;;;;;;;;5004433;28;20718;-61
2023/05/26 03:38:23;;;;;;;39.78;7.35;;;;;;;;;;5004229;28;20220;-60
2023/05/26 03:40:49;;;;;;;35.00;5.95;;;;;;;;;;5004927;28;20860;-61
2023/05/26 03:43:15;;;;;;;38.53;7.38;;;;;;;;;;5003112;28;20322;-60
2023/05/26 03:45:41;;;;;;;33.47;6.77;;;;;;;;;;4997919;28;20212;-61
2023/05/26 03:48:08;;;;;;;33.23;7.00;;;;;;;;;;4996204;28;20217;-60
2023/05/26 03:50:33;;;;;;;39.37;6.80;;;;;;;;;;4997414;28;20217;-61
2023/05/26 03:52:59;;;;;;;30.08;6.88;;;;;;;;;;5004480;28;20528;-61
2023/05/26 03:55:24;;;;;;;36.17;6.72;;;;;;;;;;5003658;28;20220;-60
2023/05/26 03:57:50;;;;;;;38.00;7.90;;;;;;;;;;5003272;28;20241;-61
2023/05/26 04:00:16;;;;;;;31.90;7.07;;;;;;;;;;5004004;28;20220;-60
2023/05/26 04:02:41;;;;;;;33.85;6.57;;;;;;;;;;5004350;28;20699;-61
2023/05/26 04:05:07;;;;;;;34.13;6.53;;;;;;;;;;5022491;28;20215;-60
2023/05/26 04:07:32;;;;;;;36.72;6.63;;;;;;;;;;5018487;28;20227;-60
2023/05/26 04:09:57;;;;;;;36.00;6.50;;;;;;;;;;5015616;28;20295;-61
2023/05/26 04:12:22;;;;;;;34.85;6.15;;;;;;;;;;5015500;28;20625;-60
2023/05/26 04:14:48;;;;;;;36.22;7.25;;;;;;;;;;5017329;28;20501;-61
2023/05/26 04:17:13;;;;;;;35.83;7.65;;;;;;;;;;5003466;28;20259;-60
2023/05/26 04:19:38;;;;;;;30.05;6.35;;;;;;;;;;5004308;28;20744;-61
2023/05/26 04:22:04;;;;;;;32.53;6.60;;;;;;;;;;5003452;28;20219;-60
2023/05/26 04:24:29;;;;;;;30.70;6.25;;;;;;;;;;5010442;28;20298;-61
2023/05/26 04:26:54;;;;;;;30.42;6.30;;;;;;;;;;5023293;28;20250;-61
2023/05/26 04:29:20;;;;;;;28.63;6.15;;;;;;;;;;5020765;28;20208;-60
2023/05/26 04:31:46;;;;;;;36.08;6.68;;;;;;;;;;5015255;28;20219;-61
2023/05/26 04:34:11;;;;;;;36.60;6.90;;;;;;;;;;5015466;28;20314;-61
2023/05/26 04:36:42;;;;;;;32.43;6.47;;;;;;;;;;5018027;28;20760;-60
2023/05/26 04:39:08;;;;;;;32.33;7.30;;;;;;;;;;5022134;28;20262;-61
2023/05/26 04:41:33;;;;;;;33.33;6.57;;;;;;;;;;5003674;28;20213;-60
2023/05/26 04:43:59;;;;;;;33.58;6.60;;;;;;;;;;5003874;28;20222;-60
2023/05/26 04:46:24;;;;;;;32.08;6.57;;;;;;;;;;5002466;28;20212;-60
2023/05/26 04:48:49;;;;;;;35.55;6.60;;;;;;;;;;5004160;28;20223;-60
2023/05/26 04:51:15;;;;;;;35.00;6.93;;;;;;;;;;5001991;28;20212;-60
2023/05/26 04:53:40;;;;;;;35.95;6.95;;;;;;;;;;4996376;28;20227;-61
2023/05/26 04:56:06;;;;;;;37.92;7.10;;;;;;;;;;4995978;28;20220;-60
2023/05/26 04:58:32;;;;;;;34.33;6.28;;;;;;;;;;5014564;28;20623;-60
2023/05/26 05:00:58;;;;;;;31.23;6.53;;;;;;;;;;5022483;28;20215;-60
2023/05/26 05:03:24;;;;;;;38.05;7.28;;;;;;;;;;5022017;28;20437;-61
2023/05/26 05:05:49;;;;;;;34.75;6.93;;;;;;;;;;5003173;28;20216;-62
2023/05/26 05:08:14;;;;;;;37.20;7.40;;;;;;;;;;5000779;28;20434;-62
2023/05/26 05:10:39;;;;;;;34.35;6.97;;;;;;;;;;5003381;28;20227;-61
2023/05/26 05:13:05;;;;;;;32.65;6.75;;;;;;;;;;5001854;28;20683;-61
2023/05/26 05:15:30;;;;;;;31.10;6.13;;;;;;;;;;4998281;28;20236;-61
2023/05/26 05:17:58;;;;;;;34.80;7.22;;;;;;;;;;4995514;28;20227;-61
2023/05/26 05:20:23;;;;;;;31.00;6.68;;;;;;;;;;5013660;28;20246;-62
2023/05/26 05:22:48;;;;;;;29.90;6.97;;;;;;;;;;5005234;28;20613;-62
2023/05/26 05:25:14;;;;;;;27.23;5.88;;;;;;;;;;5015769;28;20629;-61
2023/05/26 05:27:39;;;;;;;33.25;7.50;;;;;;;;;;5021993;28;20261;-62
2023/05/26 05:30:05;;;;;;;30.27;6.43;;;;;;;;;;5021428;28;20262;-62
2023/05/26 05:32:31;;;;;;;33.78;6.60;;;;;;;;;;5013675;28;20247;-61
2023/05/26 05:34:57;;;;;;;31.35;6.40;;;;;;;;;;5021372;28;20257;-62
2023/05/26 05:37:22;;;;;;;38.70;6.97;;;;;;;;;;5018758;28;20353;-62
2023/05/26 05:39:47;;;;;;;35.95;7.13;;;;;;;;;;5014903;28;20767;-62
2023/05/26 05:42:13;;;;;;;38.80;8.00;;;;;;;;;;5013205;28;20299;-61
2023/05/26 05:44:38;;;;;;;35.95;6.63;;;;;;;;;;5016953;28;20632;-61
2023/05/26 05:47:03;;;;;;;40.35;6.75;;;;;;;;;;5021555;28;20227;-61
2023/05/26 05:49:28;;;;;;;28.02;5.93;;;;;;;;;;5021620;28;20578;-64
2023/05/26 05:51:54;;;;;;;28.73;5.90;;;;;;;;;;5021830;28;20219;-64
2023/05/26 05:54:19;;;;;;;37.85;6.22;;;;;;;;;;5010866;28;20248;-64
2023/05/26 05:56:44;;;;;;;30.65;6.30;;;;;;;;;;5001417;28;20755;-64
2023/05/26 05:59:11;;;;;;;31.25;6.03;;;;;;;;;;5001649;28;20335;-63
2023/05/26 06:01:36;;;;;;;30.92;6.57;;;;;;;;;;4994338;28;20228;-64
2023/05/26 06:04:02;;;;;;;35.90;6.82;;;;;;;;;;4994176;28;20209;-63
2023/05/26 06:06:27;;;;;;;35.30;6.82;;;;;;;;;;4995078;28;20204;-64
2023/05/26 06:08:52;;;;;;;32.55;7.22;;;;;;;;;;5001387;28;21114;-64
2023/05/26 06:11:18;;;;;;;36.55;7.40;;;;;;;;;;5001728;28;20208;-63
2023/05/26 06:13:43;;;;;;;30.38;6.82;;;;;;;;;;5001748;28;20217;-64
2023/05/26 06:16:08;;;;;;;30.00;6.22;;;;;;;;;;5001512;28;20220;-63
2023/05/26 06:18:33;;;;;;;29.58;6.05;;;;;;;;;;5001828;28;20691;-64
2023/05/26 06:20:59;;;;;;;37.60;6.78;;;;;;;;;;5001741;28;20232;-64
2023/05/26 06:23:25;;;;;;;30.88;6.35;;;;;;;;;;4995852;28;20223;-64
2023/05/26 06:25:50;;;;;;;33.97;6.07;;;;;;;;;;5012372;28;20243;-64
2023/05/26 06:28:15;;;;;;;30.48;6.63;;;;;;;;;;5012689;28;20754;-62
2023/05/26 06:30:41;;;;;;;29.90;6.68;;;;;;;;;;5018272;28;20977;-63
2023/05/26 06:33:06;;;;;;;33.72;6.15;;;;;;;;;;5020915;28;20271;-62
2023/05/26 06:35:31;;;;;;;30.23;7.13;;;;;;;;;;5021333;28;20571;-63
2023/05/26 06:37:57;;;;;;;25.92;6.25;;;;;;;;;;5020807;28;20223;-62
2023/05/26 06:40:22;;;;;;;28.60;6.38;;;;;;;;;;5020587;28;20220;-62
2023/05/26 06:42:47;;;;;;;34.30;7.07;;;;;;;;;;5021330;28;20224;-62
2023/05/26 06:45:13;;;;;;;30.63;6.13;;;;;;;;;;5017090;28;20216;-66
2023/05/26 06:47:39;;;;;;;27.65;6.30;;;;;;;;;;5013714;28;20301;-66
2023/05/26 06:50:05;;;;;;;23.30;4.85;;;;;;;;;;5009417;28;20299;-65
2023/05/26 06:52:30;;;;;;;28.02;6.40;;;;;;;;;;5015281;28;20322;-65
2023/05/26 06:54:55;;;;;;;28.48;6.70;;;;;;;;;;5009212;28;20220;-65
2023/05/26 06:57:20;;;;;;;21.85;5.50;;;;;;;;;;5001412;28;20223;-65
2023/05/26 06:59:46;;;;;;;28.40;6.20;;;;;;;;;;5000656;28;20209;-65
2023/05/26 07:02:11;;;;;;;31.95;6.75;;;;;;;;;;5014162;28;20717;-64
2023/05/26 07:04:36;;;;;;;32.92;6.47;;;;;;;;;;5030717;28;20216;-65
2023/05/26 07:07:02;;;;;;;29.73;6.85;;;;;;;;;;5030066;28;20227;-65
2023/05/26 07:09:27;;;;;;;25.52;6.05;;;;;;;;;;5031028;28;20212;-65
2023/05/26 07:11:52;;;;;;;25.52;5.45;;;;;;;;;;5030476;28;20219;-65
2023/05/26 07:14:17;;;;;;;28.30;6.45;;;;;;;;;;5029874;28;20204;-65
2023/05/26 07:16:43;;;;;;;24.92;5.90;;;;;;;;;;5030568;28;20223;-65
2023/05/26 07:19:08;;;;;;;27.58;6.07;;;;;;;;;;5029872;28;20234;-65
2023/05/26 07:21:33;;;;;;;26.40;5.53;;;;;;;;;;5030880;28;20226;-65
2023/05/26 07:23:59;;;;;;;25.40;5.47;;;;;;;;;;5027360;28;20580;-65
2023/05/26 07:26:24;;;;;;;32.45;5.93;;;;;;;;;;5009827;28;20575;-65
2023/05/26 07:28:50;;;;;;;26.02;5.28;;;;;;;;;;5011067;28;20224;-65
2023/05/26 07:31:15;;;;;;;25.25;6.25;;;;;;;;;;5030580;28;20303;-65
2023/05/26 07:33:41;;;;;;;28.83;5.93;;;;;;;;;;5043631;28;20566;-66
2023/05/26 07:36:06;;;;;;;21.83;5.65;;;;;;;;;;5043793;28;20220;-65
2023/05/26 07:38:31;;;;;;;28.33;5.90;;;;;;;;;;5043284;28;20671;-66
2023/05/26 07:40:57;;;;;;;23.42;5.13;;;;;;;;;;5043994;28;20210;-67
2023/05/26 07:43:22;;;;;;;24.27;5.78;;;;;;;;;;5043024;28;20216;-66
2023/05/26 07:45:47;;;;;;;26.60;5.80;;;;;;;;;;5043043;28;20211;-66
2023/05/26 07:48:14;;;;;;;25.55;6.03;;;;;;;;;;5043521;28;20238;-66
2023/05/26 07:50:40;;;;;;;23.42;5.70;;;;;;;;;;5042892;28;20200;-67
2023/05/26 07:53:05;;;;;;;27.70;6.28;;;;;;;;;;5043248;28;20210;-64
2023/05/26 07:55:30;;;;;;;26.25;5.65;;;;;;;;;;5043415;28;20226;-65
2023/05/26 07:57:55;;;;;;;25.23;5.28;;;;;;;;;;5044398;28;20203;-66
2023/05/26 08:00:21;;;;;;;22.35;5.80;;;;;;;;;;5041131;28;21553;-65
2023/05/26 08:02:46;;;;;;;26.75;5.95;;;;;;;;;;5039802;28;20207;-66
2023/05/26 08:05:11;;;;;;;23.30;6.22;;;;;;;;;;5043457;28;20237;-65
2023/05/26 08:07:37;;;;;;;24.35;5.95;;;;;;;;;;5030142;28;20672;-65
2023/05/26 08:10:02;;;;;;;25.25;5.47;;;;;;;;;;5043789;28;20266;-64
2023/05/26 08:12:28;;;;;;;24.10;6.72;;;;;;;;;;5043038;28;20207;-65
2023/05/26 08:14:54;;;;;;;30.50;7.95;;;;;;;;;;5040610;28;20283;-66
2023/05/26 08:17:20;;;;;;;23.92;6.22;;;;;;;;;;5041777;28;20219;-65
2023/05/26 08:19:45;;;;;;;31.65;5.97;;;;;;;;;;5041749;28;20231;-66
2023/05/26 08:22:10;;;;;;;24.27;5.78;;;;;;;;;;5042966;28;20617;-65
2023/05/26 08:24:36;;;;;;;30.95;6.60;;;;;;;;;;5034887;28;20223;-66
2023/05/26 08:27:01;;;;;;;28.10;6.28;;;;;;;;;;5032826;28;20207;-65
2023/05/26 08:29:27;;;;;;;25.92;5.85;;;;;;;;;;5032037;28;20220;-66
2023/05/26 08:31:52;;;;;;;27.33;6.20;;;;;;;;;;5041595;28;20239;-66
2023/05/26 08:34:17;;;;;;;25.67;5.55;;;;;;;;;;5042629;28;20210;-66
2023/05/26 08:36:43;;;;;;;21.95;5.55;;;;;;;;;;5042187;28;20228;-65
2023/05/26 08:39:09;;;;;;;22.13;5.55;;;;;;;;;;5039107;28;20644;-64
2023/05/26 08:41:43;;;;;;;27.90;5.85;;;;;;;;;;5043733;28;20211;-64
2023/05/26 08:44:09;;;;;;;19.45;5.63;;;;;;;;;;5032200;28;20246;-64
2023/05/26 08:46:35;;;;;;;23.52;5.80;;;;;;;;;;5041691;28;20278;-65
2023/05/26 08:49:00;;;;;;;21.95;6.38;;;;;;;;;;5042092;28;20203;-62
2023/05/26 08:51:26;;;;;;;29.05;5.55;;;;;;;;;;5042293;28;20227;-65
2023/05/26 08:53:51;;;;;;;19.17;5.25;;;;;;;;;;5041456;28;20678;-64
2023/05/26 08:56:16;;;;;;;24.77;5.85;;;;;;;;;;5041033;28;20258;-65
2023/05/26 08:58:42;;;;;;;25.42;5.68;;;;;;;;;;5041504;28;20195;-64
2023/05/26 09:01:08;;;;;;;20.05;5.60;;;;;;;;;;5042698;28;20231;-64
2023/05/26 09:03:33;;;;;;;26.20;5.88;;;;;;;;;;5041142;28;20204;-65
2023/05/26 09:05:58;;;;;;;25.90;6.68;;;;;;;;;;5041903;28;20210;-65
2023/05/26 09:08:23;;;;;;;25.33;6.05;;;;;;;;;;5041962;28;20203;-64
2023/05/26 09:10:49;;;;;;;29.67;6.90;;;;;;;;;;5041303;28;20219;-65
2023/05/26 09:13:14;;;;;;;27.08;6.50;;;;;;;;;;5041268;28;20203;-64
2023/05/26 09:15:40;;;;;;;25.00;5.35;;;;;;;;;;5038702;28;20227;-64
2023/05/26 09:18:06;;;;;;;19.90;5.57;;;;;;;;;;5039816;28;20203;-63
2023/05/26 09:20:32;;;;;;;21.08;5.38;;;;;;;;;;5042044;28;20222;-64
2023/05/26 09:22:57;;;;;;;22.60;6.05;;;;;;;;;;5041160;28;20565;-65
2023/05/26 09:25:26;;;;;;;26.80;5.78;;;;;;;;;;5041510;28;20237;-64
2023/05/26 09:27:52;;;;;;;27.38;5.80;;;;;;;;;;5040714;28;20209;-64
2023/05/26 09:30:17;;;;;;;21.42;5.18;;;;;;;;;;5039318;28;20290;-64
2023/05/26 09:32:44;;;;;;;25.95;5.45;;;;;;;;;;5040617;28;20214;-65
2023/05/26 09:35:10;;;;;;;27.80;5.50;;;;;;;;;;5040788;28;20223;-66
2023/05/26 09:37:35;;;;;;;20.88;4.95;;;;;;;;;;5040803;28;20222;-65
2023/05/26 09:40:08;;;;;;;22.88;5.13;;;;;;;;;;5041508;28;20218;-65
2023/05/26 09:42:35;;;;;;;20.77;5.57;;;;;;;;;;5042113;28;20290;-65
2023/05/26 09:45:01;;;;;;;23.08;5.68;;;;;;;;;;5040705;28;20204;-61
2023/05/26 09:47:30;;;;;;;19.27;5.10;;;;;;;;;;5038576;28;20273;-64
2023/05/26 09:50:01;;;;;;;21.50;5.00;;;;;;;;;;5036744;28;20212;-64
2023/05/26 09:52:26;;;;;;;19.75;4.60;;;;;;;;;;5040188;28;20207;-65
2023/05/26 09:54:51;;;;;;;19.80;5.00;;;;;;;;;;5041856;28;20207;-65
2023/05/26 09:57:17;;;;;;;19.13;5.10;;;;;;;;;;5041494;28;20211;-65
2023/05/26 09:59:42;;;;;;;23.92;5.32;;;;;;;;;;5041061;28;20644;-64
2023/05/26 10:02:17;;;;;;;19.80;4.93;;;;;;;;;;5037878;28;20227;-65
2023/05/26 10:04:42;;;;;;;19.95;5.00;;;;;;;;;;5039772;28;20218;-65
2023/05/26 10:07:08;;;;;;;24.65;5.60;;;;;;;;;;5039805;28;20289;-64
2023/05/26 10:09:33;;;;;;;25.17;5.72;;;;;;;;;;5040075;28;20646;-65
2023/05/26 10:11:58;;;;;;;23.00;5.18;;;;;;;;;;5033996;28;20215;-65
2023/05/26 10:14:24;;;;;;;20.25;4.95;;;;;;;;;;5026141;28;20212;-65
2023/05/26 10:16:49;;;;;;;24.63;5.28;;;;;;;;;;5029531;28;20688;-65
2023/05/26 10:19:15;;;;;;;20.65;5.20;;;;;;;;;;5029796;28;20727;-65
2023/05/26 10:21:41;;;;;;;21.52;4.85;;;;;;;;;;5029207;28;20219;-65
2023/05/26 10:24:13;;;;;;;20.45;4.70;;;;;;;;;;5028844;28;20670;-64
2023/05/26 10:27:09;;;;;;;23.88;5.32;;;;;;;;;;5029975;28;20216;-65
2023/05/26 10:29:46;;;;;;;22.60;4.75;;;;;;;;;;5030402;28;20226;-65
2023/05/26 10:32:42;;;;;;;23.83;5.22;;;;;;;;;;5029825;28;20212;-65
2023/05/26 10:35:19;;;;;;;19.90;5.13;;;;;;;;;;5030304;28;20254;-64
2023/05/26 10:37:47;;;;;;;22.15;5.05;;;;;;;;;;5030058;28;20250;-66
2023/05/26 10:40:26;;;;;;;17.33;4.50;;;;;;;;;;5029495;28;20227;-65
2023/05/26 10:42:51;;;;;;;20.73;4.53;;;;;;;;;;5028026;28;20246;-65
2023/05/26 10:45:18;;;;;;;22.63;5.10;;;;;;;;;;5030423;28;20235;-64
2023/05/26 10:47:46;;;;;;;15.70;4.05;;;;;;;;;;5030703;28;20290;-65
2023/05/26 10:50:11;;;;;;;21.27;5.10;;;;;;;;;;5028129;28;20242;-64
2023/05/26 10:52:47;;;;;;;22.38;4.82;;;;;;;;;;5028845;28;20236;-64
2023/05/26 10:55:30;;;;;;;15.88;4.63;;;;;;;;;;5036484;28;20211;-64
2023/05/26 10:58:15;;;;;;;21.95;4.80;;;;;;;;;;5036868;28;20713;-65
2023/05/26 11:00:43;;;;;;;19.92;4.93;;;;;;;;;;5033923;28;20278;-64
2023/05/26 11:03:40;;;;;;;17.25;4.88;;;;;;;;;;5028796;28;20212;-62
2023/05/26 11:06:06;;;;;;;17.83;4.82;;;;;;;;;;5029471;28;20215;-63
2023/05/26 11:08:36;;;;;;;18.60;4.63;;;;;;;;;;5032864;28;20207;-64
2023/05/26 11:11:03;;;;;;;22.85;4.90;;;;;;;;;;5031883;28;20254;-64
2023/05/26 11:13:38;;;;;;;20.38;4.60;;;;;;;;;;5032955;28;20686;-63
2023/05/26 11:16:11;;;;;;;19.13;4.65;;;;;;;;;;5018617;28;20238;-63
2023/05/26 11:18:36;;;;;;;19.77;4.60;;;;;;;;;;5032483;28;20214;-64
2023/05/26 11:21:02;;;;;;;18.55;4.70;;;;;;;;;;5031837;28;20318;-66
2023/05/26 11:23:28;;;;;;;23.83;5.00;;;;;;;;;;5032554;28;20236;-64
2023/05/26 11:25:54;;;;;;;17.65;4.63;;;;;;;;;;5031867;28;20212;-64
2023/05/26 11:28:20;;;;;;;16.65;4.43;;;;;;;;;;5032363;28;20212;-62
2023/05/26 11:30:46;;;;;;;17.13;4.03;;;;;;;;;;5032880;28;20303;-63
2023/05/26 11:33:12;;;;;;;15.75;4.50;;;;;;;;;;5033632;28;20295;-64
2023/05/26 11:35:37;;;;;;;18.75;4.78;;;;;;;;;;5041309;28;20299;-62
2023/05/26 11:38:03;;;;;;;19.02;4.45;;;;;;;;;;5041981;28;20635;-61
2023/05/26 11:40:29;;;;;;;19.65;5.00;;;;;;;;;;5039883;28;20204;-62
2023/05/26 11:42:55;;;;;;;17.65;4.55;;;;;;;;;;5040758;28;20280;-62
2023/05/26 11:45:20;;;;;;;20.75;5.00;;;;;;;;;;5038425;28;20215;-64
2023/05/26 11:47:47;;;;;;;23.33;5.25;;;;;;;;;;5040088;28;20679;-62
2023/05/26 11:51:52;;;;;;;18.10;4.95;;;;;;;;;;5049477;27;20356;-63
2023/05/26 11:54:17;;;;;;;21.48;5.30;;;;;;;;;;5034552;28;20298;-63
2023/05/26 11:56:43;;;;;;;14.77;4.68;;;;;;;;;;5036153;28;20212;-64
2023/05/26 11:59:08;;;;;;;17.48;4.47;;;;;;;;;;5034488;28;20230;-64
2023/05/26 12:03:00;;;;;;;18.98;4.82;;;;;;;;;;5039721;28;20994;-61
2023/05/26 12:05:26;;;;;;;17.27;4.57;;;;;;;;;;5032588;28;20216;-61
2023/05/26 12:08:01;;;;;;;16.85;4.50;;;;;;;;;;5030303;28;20310;-63
2023/05/26 12:10:28;;;;;;;18.27;4.80;;;;;;;;;;5064850;28;20213;-64
2023/05/26 12:12:53;;;;;;;18.13;4.90;;;;;;;;;;5058534;28;20214;-66
2023/05/26 12:15:19;;;;;;;15.45;4.15;;;;;;;;;;5041960;28;20214;-63
2023/05/26 12:17:45;;;;;;;16.65;4.38;;;;;;;;;;5190391;23;20242;-64
2023/05/26 12:20:13;;;;;;;16.55;4.53;;;;;;;;;;5005935;28;21137;-64
2023/05/26 12:22:39;;;;;;;18.02;4.50;;;;;;;;;;5003890;28;20291;-63
2023/05/26 12:25:05;;;;;;;19.35;4.72;;;;;;;;;;5031509;23;20232;-63
2023/05/26 12:27:36;;;;;;;17.48;4.18;;;;;;;;;;5024525;28;20299;-64
2023/05/26 12:30:15;;;;;;;19.80;4.10;;;;;;;;;;5020925;28;20763;-64
2023/05/26 12:32:40;;;;;;;15.02;4.15;;;;;;;;;;5023720;28;20552;-63
2023/05/26 12:35:06;;;;;;;20.52;4.32;;;;;;;;;;5024224;28;20208;-63
2023/05/26 12:37:31;;;;;;;14.85;4.40;;;;;;;;;;5023692;28;20207;-63
2023/05/26 12:39:57;;;;;;;18.35;4.55;;;;;;;;;;5027006;28;20235;-63
2023/05/26 12:42:22;;;;;;;17.05;4.47;;;;;;;;;;5027105;28;20248;-63
2023/05/26 12:44:47;;;;;;;17.58;4.13;;;;;;;;;;5025001;28;20246;-63
2023/05/26 12:47:13;;;;;;;15.07;4.22;;;;;;;;;;5027182;28;20208;-63
2023/05/26 12:49:38;;;;;;;14.25;3.60;;;;;;;;;;5025110;28;20662;-63
2023/05/26 12:52:03;;;;;;;18.00;4.60;;;;;;;;;;5027386;28;20219;-62
2023/05/26 12:54:29;;;;;;;13.43;4.00;;;;;;;;;;5027596;28;20214;-63
2023/05/26 12:56:54;;;;;;;17.48;4.10;;;;;;;;;;5025455;28;20219;-63
2023/05/26 12:59:20;;;;;;;16.73;4.28;;;;;;;;;;5025614;28;20219;-63
2023/05/26 13:01:45;;;;;;;13.52;3.67;;;;;;;;;;5027157;28;20220;-63
2023/05/26 13:04:10;;;;;;;16.73;4.15;;;;;;;;;;5022993;28;20227;-63
2023/05/26 13:06:36;;;;;;;13.30;4.30;;;;;;;;;;5025580;28;20748;-63
2023/05/26 13:09:02;;;;;;;14.90;3.55;;;;;;;;;;5025152;28;20204;-62
2023/05/26 13:11:27;;;;;;;18.13;4.05;;;;;;;;;;5024517;28;20243;-63
2023/05/26 13:13:52;;;;;;;13.25;3.60;;;;;;;;;;5016744;28;20216;-63
2023/05/26 13:16:18;;;;;;;13.55;3.75;;;;;;;;;;5013159;28;20209;-63
2023/05/26 13:18:43;;;;;;;13.95;3.97;;;;;;;;;;5010659;28;20243;-63
2023/05/26 13:21:09;;;;;;;17.85;3.83;;;;;;;;;;5012781;28;20219;-63
2023/05/26 13:23:35;;;;;;;15.65;4.50;;;;;;;;;;5013602;28;20248;-63
2023/05/26 13:26:00;;;;;;;13.25;3.55;;;;;;;;;;5011653;28;20256;-62
2023/05/26 13:28:26;;;;;;;13.05;3.70;;;;;;;;;;5013988;28;20282;-62
2023/05/26 13:30:51;;;;;;;14.48;3.78;;;;;;;;;;5013692;28;20217;-62
2023/05/26 13:33:17;;;;;;;14.38;3.67;;;;;;;;;;5012615;28;20223;-62
2023/05/26 13:35:42;;;;;;;15.07;4.00;;;;;;;;;;5013447;28;20275;-62
2023/05/26 13:38:07;;;;;;;14.30;3.80;;;;;;;;;;5012867;28;20223;-62
2023/05/26 13:40:32;;;;;;;16.00;3.60;;;;;;;;;;5012967;28;20220;-64
2023/05/26 13:42:58;;;;;;;14.73;3.78;;;;;;;;;;5012604;28;20278;-65
2023/05/26 13:45:24;;;;;;;16.98;3.78;;;;;;;;;;5012748;28;20209;-64
2023/05/26 13:47:49;;;;;;;13.82;3.65;;;;;;;;;;5011824;28;20216;-65
2023/05/26 13:50:14;;;;;;;14.68;3.65;;;;;;;;;;5010899;28;20679;-65
2023/05/26 13:52:40;;;;;;;14.45;4.30;;;;;;;;;;5006987;28;20728;-63
2023/05/26 13:55:05;;;;;;;16.50;3.90;;;;;;;;;;4998299;28;20312;-62
2023/05/26 13:57:31;;;;;;;10.48;3.47;;;;;;;;;;5003852;28;20219;-62
2023/05/26 13:59:57;;;;;;;12.50;3.38;;;;;;;;;;4984518;28;20217;-63
2023/05/26 14:02:22;;;;;;;15.35;3.58;;;;;;;;;;4981169;28;20311;-63
2023/05/26 14:04:47;;;;;;;13.98;3.60;;;;;;;;;;5000850;28;20881;-62
2023/05/26 14:07:12;;;;;;;12.10;3.40;;;;;;;;;;5011227;28;20275;-62
2023/05/26 14:09:38;;;;;;;15.68;3.90;;;;;;;;;;4988986;28;20231;-62
2023/05/26 14:12:03;;;;;;;13.25;3.40;;;;;;;;;;4988793;28;20224;-62
2023/05/26 14:14:28;;;;;;;13.90;3.80;;;;;;;;;;4988618;28;20236;-63
2023/05/26 14:16:54;;;;;;;16.50;4.00;;;;;;;;;;5007517;28;20220;-62
2023/05/26 14:19:19;;;;;;;14.30;3.47;;;;;;;;;;5006756;28;22366;-62
2023/05/26 14:21:45;;;;;;;13.52;3.85;;;;;;;;;;5000206;28;20476;-61
2023/05/26 14:24:11;;;;;;;15.80;3.75;;;;;;;;;;4998122;28;20643;-62
2023/05/26 14:26:36;;;;;;;11.93;3.25;;;;;;;;;;4987858;28;20251;-62
2023/05/26 14:29:02;;;;;;;16.10;3.50;;;;;;;;;;4985365;28;20271;-61
2023/05/26 14:31:27;;;;;;;11.98;3.40;;;;;;;;;;5006697;28;20212;-62